Time;durP1;ratioP1;P1;durP2;ratioP2;P2;SDS_P1;SDS_P2;PMS_P1;PMS_P2;Temp;Humidity;BMP_temperature;BMP_pressure;BME280_temperature;BME280_humidity;BME280_pressure;Samples;Min_cycle;Max_cycle;Signal;HPM_P1;HPM_P2
2023/01/20 00:00:10;;;;;;;14.57;7.40;;;-0.80;99.90;;;;;;5074004;28;20033;-78
2023/01/20 00:02:36;;;;;;;12.73;8.40;;;-1.20;99.90;;;;;;5055741;28;20035;-77
2023/01/20 00:05:01;;;;;;;15.90;8.77;;;-1.20;99.90;;;;;;5073905;28;20033;-77
2023/01/20 00:07:27;;;;;;;15.93;8.20;;;-1.20;99.90;;;;;;5074017;28;20394;-78
2023/01/20 00:09:52;;;;;;;15.65;8.18;;;-1.00;99.90;;;;;;5073912;28;20399;-78
2023/01/20 00:12:18;;;;;;;15.73;8.13;;;-1.20;99.90;;;;;;5073794;28;20078;-78
2023/01/20 00:14:44;;;;;;;14.57;7.95;;;-1.30;99.90;;;;;;5073495;28;20439;-77
2023/01/20 00:17:09;;;;;;;12.50;8.18;;;-1.20;99.90;;;;;;5074133;28;20044;-77
2023/01/20 00:19:35;;;;;;;15.05;8.35;;;-1.20;99.90;;;;;;5076770;28;20029;-77
2023/01/20 00:22:01;;;;;;;13.88;8.00;;;-1.30;99.90;;;;;;5080862;28;20457;-78
2023/01/20 00:24:26;;;;;;;14.27;8.88;;;-1.30;99.90;;;;;;5062406;28;20025;-77
2023/01/20 00:26:52;;;;;;;15.48;8.85;;;-1.30;99.90;;;;;;5080612;28;20028;-77
2023/01/20 00:29:18;;;;;;;18.65;8.13;;;-1.00;99.90;;;;;;5062007;28;20106;-78
2023/01/20 00:31:43;;;;;;;15.95;8.73;;;-1.20;99.90;;;;;;5080352;28;20025;-78
2023/01/20 00:34:10;;;;;;;15.30;8.50;;;-1.20;99.90;;;;;;5062306;28;20523;-78
2023/01/20 00:36:36;;;;;;;14.38;8.48;;;-1.30;99.90;;;;;;5080385;28;20064;-77
2023/01/20 00:39:03;;;;;;;15.30;8.95;;;-1.20;99.90;;;;;;5080373;28;20028;-77
2023/01/20 00:41:29;;;;;;;15.95;8.50;;;-1.30;99.90;;;;;;5080139;28;20119;-77
2023/01/20 00:43:54;;;;;;;15.40;8.68;;;-1.40;99.90;;;;;;5080412;28;20063;-77
2023/01/20 00:46:21;;;;;;;16.30;9.10;;;-1.40;99.90;;;;;;5080811;28;20051;-76
2023/01/20 00:48:47;;;;;;;16.30;8.77;;;-1.50;99.90;;;;;;5080041;28;20074;-78
2023/01/20 00:51:13;;;;;;;15.27;8.80;;;-1.40;99.90;;;;;;5062303;28;20036;-78
2023/01/20 00:53:39;;;;;;;15.73;8.57;;;-1.60;99.90;;;;;;5079873;28;20464;-79
2023/01/20 00:56:05;;;;;;;15.00;8.63;;;-1.50;99.90;;;;;;5080404;28;20056;-78
2023/01/20 00:58:30;;;;;;;15.40;8.50;;;-1.80;99.90;;;;;;5079953;28;20071;-78
2023/01/20 01:00:57;;;;;;;15.18;7.90;;;-1.80;99.90;;;;;;5080160;28;20048;-76
2023/01/20 01:03:23;;;;;;;15.98;8.07;;;-1.90;99.90;;;;;;5080108;28;20024;-77
2023/01/20 01:05:49;;;;;;;18.75;8.80;;;-1.90;99.90;;;;;;5062150;28;20039;-78
2023/01/20 01:08:15;;;;;;;15.88;8.68;;;-2.00;99.90;;;;;;5062127;28;20382;-77
2023/01/20 01:10:40;;;;;;;19.40;9.65;;;-2.00;99.90;;;;;;5062318;28;20025;-77
2023/01/20 01:13:07;;;;;;;20.10;10.07;;;-1.90;99.90;;;;;;5079769;28;20024;-78
2023/01/20 01:15:33;;;;;;;16.80;9.52;;;-1.90;99.90;;;;;;5079916;28;20078;-77
2023/01/20 01:17:59;;;;;;;17.33;9.77;;;-1.90;99.90;;;;;;5080122;28;20027;-77
2023/01/20 01:20:26;;;;;;;20.13;10.10;;;-1.90;99.90;;;;;;5062356;28;20052;-77
2023/01/20 01:22:52;;;;;;;21.25;10.18;;;-1.90;99.90;;;;;;5062106;28;20063;-77
2023/01/20 01:25:18;;;;;;;17.38;9.40;;;-1.70;99.90;;;;;;5080075;28;20024;-78
2023/01/20 01:27:43;;;;;;;22.10;10.45;;;-1.90;99.90;;;;;;5080168;28;20052;-78
2023/01/20 01:30:10;;;;;;;15.73;10.30;;;-1.90;99.90;;;;;;5080180;28;20043;-78
2023/01/20 01:32:36;;;;;;;15.77;9.45;;;-1.90;99.90;;;;;;5057622;28;20123;-78
2023/01/20 01:35:01;;;;;;;15.30;8.48;;;-1.90;99.90;;;;;;5076525;28;20111;-77
2023/01/20 01:37:28;;;;;;;16.77;9.05;;;-1.60;99.90;;;;;;5058669;28;20387;-78
2023/01/20 01:39:53;;;;;;;14.05;8.13;;;-2.00;99.90;;;;;;5058521;28;20041;-78
2023/01/20 01:42:23;;;;;;;16.92;9.43;;;-1.50;99.90;;;;;;5076408;28;20389;-77
2023/01/20 01:45:10;;;;;;;16.83;9.18;;;-2.10;99.90;;;;;;5076244;28;20033;-77
2023/01/20 01:47:44;;;;;;;17.08;9.60;;;-2.10;99.90;;;;;;5058442;28;20462;-77
2023/01/20 01:50:33;;;;;;;16.88;9.27;;;-2.10;99.90;;;;;;5076608;28;20016;-78
2023/01/20 01:53:00;;;;;;;19.75;9.73;;;-2.10;99.90;;;;;;5075302;28;20045;-76
2023/01/20 01:55:29;;;;;;;23.75;10.45;;;-2.10;99.90;;;;;;5058153;28;20032;-77
2023/01/20 01:57:57;;;;;;;18.67;10.25;;;-2.10;99.90;;;;;;5076406;28;20035;-77
2023/01/20 02:00:23;;;;;;;18.77;10.40;;;-2.00;99.90;;;;;;5058255;28;20466;-77
2023/01/20 02:02:49;;;;;;;17.63;10.07;;;-2.10;99.90;;;;;;5076053;28;20040;-78
2023/01/20 02:05:16;;;;;;;18.83;10.75;;;-2.10;99.90;;;;;;5057993;28;20473;-77
2023/01/20 02:07:44;;;;;;;19.58;10.93;;;-2.10;99.90;;;;;;5058144;28;20026;-77
2023/01/20 02:10:10;;;;;;;20.73;11.43;;;-2.10;99.90;;;;;;5057937;28;20029;-77
2023/01/20 02:12:36;;;;;;;20.95;10.63;;;-2.10;99.90;;;;;;5075672;28;20388;-78
2023/01/20 02:15:03;;;;;;;22.65;10.55;;;-1.50;99.90;;;;;;5057776;28;20028;-77
2023/01/20 02:17:29;;;;;;;17.77;9.60;;;-2.00;99.90;;;;;;5075975;28;20408;-77
2023/01/20 02:20:30;;;;;;;20.90;10.25;;;-2.00;99.90;;;;;;5057758;28;20020;-78
2023/01/20 02:23:35;;;;;;;20.27;10.48;;;-2.00;99.90;;;;;;5057853;28;20060;-77
2023/01/20 02:26:26;;;;;;;18.33;10.25;;;-1.70;99.90;;;;;;5075816;28;20040;-77
2023/01/20 02:29:07;;;;;;;20.67;11.68;;;-1.90;99.90;;;;;;5057655;28;20052;-77
2023/01/20 02:32:01;;;;;;;19.23;11.52;;;-1.90;99.90;;;;;;5057669;28;20523;-78
2023/01/20 02:34:36;;;;;;;18.92;10.27;;;-1.90;99.90;;;;;;5075746;28;20545;-77
2023/01/20 02:37:08;;;;;;;17.55;10.40;;;-1.90;99.90;;;;;;5057458;28;20386;-79
2023/01/20 02:39:48;;;;;;;24.70;11.27;;;-1.90;99.90;;;;;;5075320;28;20029;-78
2023/01/20 02:42:20;;;;;;;19.98;11.35;;;-1.90;99.90;;;;;;5075181;28;20100;-78
2023/01/20 02:44:53;;;;;;;22.63;11.65;;;-1.90;99.90;;;;;;5075022;28;20035;-78
2023/01/20 02:47:34;;;;;;;19.13;11.18;;;-1.90;99.90;;;;;;5075486;28;20021;-78
2023/01/20 02:50:02;;;;;;;23.27;11.02;;;-2.00;99.90;;;;;;5075219;28;20104;-78
2023/01/20 02:52:35;;;;;;;22.50;10.98;;;-2.00;99.90;;;;;;5075424;28;20024;-78
2023/01/20 02:55:07;;;;;;;26.33;11.23;;;-1.80;99.90;;;;;;5075249;28;20029;-77
2023/01/20 02:57:42;;;;;;;22.70;11.00;;;-2.00;99.90;;;;;;5075298;28;20055;-77
2023/01/20 03:00:22;;;;;;;23.85;11.10;;;-2.00;99.90;;;;;;5057374;28;20119;-77
2023/01/20 03:02:51;;;;;;;23.55;10.63;;;-2.10;99.90;;;;;;5075158;28;20028;-77
2023/01/20 03:05:26;;;;;;;19.85;11.45;;;-2.10;99.90;;;;;;5056574;28;20032;-77
2023/01/20 03:07:54;;;;;;;19.83;11.88;;;-2.10;99.90;;;;;;5057141;28;20541;-78
2023/01/20 03:10:23;;;;;;;20.25;11.32;;;-2.20;99.90;;;;;;5074730;28;20103;-77
2023/01/20 03:12:54;;;;;;;20.88;11.35;;;-2.30;99.90;;;;;;5074754;28;20024;-77
2023/01/20 03:15:24;;;;;;;17.70;11.18;;;-2.40;99.90;;;;;;5056679;28;20107;-77
2023/01/20 03:17:51;;;;;;;22.48;11.90;;;-2.40;99.90;;;;;;5074637;28;20029;-77
2023/01/20 03:20:17;;;;;;;21.88;11.82;;;-2.40;99.90;;;;;;5074462;28;20061;-78
2023/01/20 03:22:42;;;;;;;23.58;11.98;;;-2.40;99.90;;;;;;5056719;28;20071;-78
2023/01/20 03:25:10;;;;;;;26.52;12.75;;;-2.50;99.90;;;;;;5075030;28;20087;-78
2023/01/20 03:27:36;;;;;;;27.20;12.63;;;-2.50;99.90;;;;;;5074731;28;20024;-77
2023/01/20 03:30:04;;;;;;;21.63;12.45;;;-2.60;99.90;;;;;;5074666;28;20028;-77
2023/01/20 03:32:31;;;;;;;24.92;11.80;;;-2.60;99.90;;;;;;5056147;28;20025;-77
2023/01/20 03:34:58;;;;;;;30.73;13.80;;;-1.80;99.90;;;;;;5056428;28;20037;-78
2023/01/20 03:37:23;;;;;;;25.17;13.05;;;-2.50;99.90;;;;;;5074156;28;20054;-78
2023/01/20 03:39:50;;;;;;;22.83;12.10;;;-2.50;99.90;;;;;;5056156;28;20545;-78
2023/01/20 03:42:30;;;;;;;22.45;11.77;;;-2.50;99.90;;;;;;5056940;28;20026;-77
2023/01/20 03:45:16;;;;;;;20.70;11.80;;;-2.50;99.90;;;;;;5056468;28;20442;-76
2023/01/20 03:48:03;;;;;;;26.33;12.20;;;-2.50;99.90;;;;;;5074393;28;20032;-78
2023/01/20 03:50:47;;;;;;;25.38;12.52;;;-2.50;99.90;;;;;;5074941;28;20524;-78
2023/01/20 03:53:25;;;;;;;23.13;11.77;;;-2.50;99.90;;;;;;5074755;28;20024;-77
2023/01/20 03:56:13;;;;;;;18.85;10.95;;;-2.00;99.90;;;;;;5056048;28;20061;-78
2023/01/20 03:58:44;;;;;;;23.50;11.85;;;-2.60;99.90;;;;;;5056504;28;20059;-78
2023/01/20 04:01:12;;;;;;;23.20;11.57;;;-2.40;99.90;;;;;;5056557;28;20389;-77
2023/01/20 04:03:42;;;;;;;26.48;12.35;;;-2.50;99.90;;;;;;5055914;28;20028;-78
2023/01/20 04:06:11;;;;;;;22.70;10.35;;;-2.60;99.90;;;;;;5056190;28;20086;-77
2023/01/20 04:08:44;;;;;;;26.02;12.48;;;-2.50;99.90;;;;;;5056445;28;20029;-76
2023/01/20 04:11:09;;;;;;;22.95;11.38;;;-2.30;99.90;;;;;;5056025;28;20056;-77
2023/01/20 04:13:35;;;;;;;24.73;11.27;;;-2.50;99.90;;;;;;5073832;28;20059;-79
2023/01/20 04:16:02;;;;;;;21.90;12.30;;;-2.50;99.90;;;;;;5056210;28;20477;-78
2023/01/20 04:18:28;;;;;;;25.33;11.48;;;-2.50;99.90;;;;;;5074069;28;20047;-78
2023/01/20 04:21:03;;;;;;;23.15;12.93;;;-1.80;99.90;;;;;;5074051;28;20446;-78
2023/01/20 04:23:41;;;;;;;27.05;12.38;;;-2.40;99.90;;;;;;5074157;28;20029;-78
2023/01/20 04:26:06;;;;;;;23.95;11.90;;;-2.40;99.90;;;;;;5073661;28;20108;-78
2023/01/20 04:28:32;;;;;;;21.35;12.15;;;-2.40;99.90;;;;;;5074026;28;20103;-78
2023/01/20 04:30:58;;;;;;;23.30;12.18;;;-2.40;99.90;;;;;;5073714;28;20052;-78
2023/01/20 04:33:23;;;;;;;22.52;11.38;;;-2.40;99.90;;;;;;5055896;28;20036;-78
2023/01/20 04:35:49;;;;;;;25.08;11.63;;;-2.20;99.90;;;;;;5055748;28;20032;-77
2023/01/20 04:38:15;;;;;;;23.92;12.55;;;-2.30;99.90;;;;;;5055561;28;20024;-77
2023/01/20 04:40:41;;;;;;;22.58;11.23;;;-2.30;99.90;;;;;;5073558;28;20029;-77
2023/01/20 04:43:08;;;;;;;23.23;11.75;;;-2.10;99.90;;;;;;5055771;28;20413;-77
2023/01/20 04:45:34;;;;;;;21.00;11.70;;;-2.20;99.90;;;;;;5073763;28;20028;-78
2023/01/20 04:48:04;;;;;;;22.73;12.48;;;-2.30;99.90;;;;;;5074201;28;20048;-77
2023/01/20 04:50:29;;;;;;;24.92;11.43;;;-1.80;99.90;;;;;;5073596;28;20074;-78
2023/01/20 04:52:55;;;;;;;20.40;12.10;;;-2.20;99.90;;;;;;5055756;28;20024;-77
2023/01/20 04:55:21;;;;;;;20.77;11.77;;;-2.10;99.90;;;;;;5055536;28;20050;-78
2023/01/20 04:57:47;;;;;;;23.67;12.55;;;-1.80;99.90;;;;;;5073849;28;20458;-78
2023/01/20 05:00:18;;;;;;;21.75;11.45;;;-2.30;99.90;;;;;;5055558;28;20474;-77
2023/01/20 05:02:45;;;;;;;20.10;12.10;;;-2.30;99.90;;;;;;5055631;28;20086;-77
2023/01/20 05:05:10;;;;;;;24.38;11.75;;;-2.30;99.90;;;;;;5055412;28;20086;-78
2023/01/20 05:07:36;;;;;;;20.30;10.80;;;-2.20;99.90;;;;;;5076212;28;20028;-78
2023/01/20 05:10:02;;;;;;;22.40;11.40;;;-2.00;99.90;;;;;;5059081;28;20021;-77
2023/01/20 05:12:28;;;;;;;22.38;11.52;;;-2.30;99.90;;;;;;5077341;28;20063;-78
2023/01/20 05:14:53;;;;;;;20.70;11.52;;;-2.40;99.90;;;;;;5077056;28;20519;-77
2023/01/20 05:17:19;;;;;;;21.63;11.68;;;-2.40;99.90;;;;;;5058916;28;20024;-75
2023/01/20 05:19:44;;;;;;;20.70;12.10;;;-2.10;99.90;;;;;;5076837;28;20025;-75
2023/01/20 05:22:10;;;;;;;19.65;11.50;;;-2.60;99.90;;;;;;5077057;28;20044;-76
2023/01/20 05:24:37;;;;;;;19.13;12.00;;;-2.70;99.90;;;;;;5076792;28;20074;-77
2023/01/20 05:27:03;;;;;;;18.75;10.73;;;-1.70;99.90;;;;;;5076835;28;20048;-76
2023/01/20 05:29:28;;;;;;;22.63;11.57;;;-2.80;99.90;;;;;;5076846;28;20076;-79
2023/01/20 05:32:09;;;;;;;23.38;12.07;;;-2.30;99.90;;;;;;5049610;28;20553;-76
2023/01/20 05:34:35;;;;;;;23.13;12.93;;;-2.80;99.90;;;;;;5076682;28;20028;-77
2023/01/20 05:37:01;;;;;;;23.10;12.40;;;-2.70;99.90;;;;;;5076600;28;20032;-76
2023/01/20 05:39:26;;;;;;;26.13;14.32;;;-2.70;99.90;;;;;;5076607;28;20031;-77
2023/01/20 05:41:52;;;;;;;28.42;14.82;;;;;;;;;;5058571;28;20021;-77
2023/01/20 05:44:18;;;;;;;25.98;14.88;;;-2.60;99.90;;;;;;5058500;28;20111;-79
2023/01/20 05:46:44;;;;;;;26.25;13.90;;;-2.60;99.90;;;;;;5058582;28;20034;-76
2023/01/20 05:49:11;;;;;;;22.27;13.07;;;-2.50;99.90;;;;;;5076110;28;20028;-78
2023/01/20 05:51:37;;;;;;;23.33;12.82;;;-2.40;99.90;;;;;;5076459;28;20017;-78
2023/01/20 05:54:02;;;;;;;24.27;12.98;;;-2.50;99.90;;;;;;5076466;28;20028;-78
2023/01/20 05:56:28;;;;;;;26.83;13.00;;;-2.40;99.90;;;;;;5075990;28;20426;-77
2023/01/20 05:58:54;;;;;;;22.33;12.45;;;-2.20;99.90;;;;;;5076234;28;20037;-78
2023/01/20 06:01:21;;;;;;;21.80;12.50;;;-1.90;99.90;;;;;;5058380;28;20159;-79
2023/01/20 06:03:46;;;;;;;21.67;12.65;;;-2.20;99.90;;;;;;5058235;28;20029;-78
2023/01/20 06:06:18;;;;;;;28.05;13.50;;;-2.20;99.90;;;;;;5076031;28;20025;-78
2023/01/20 06:08:44;;;;;;;22.98;12.55;;;-2.20;99.90;;;;;;5076481;28;20090;-78
2023/01/20 06:11:12;;;;;;;23.20;12.40;;;-2.00;99.90;;;;;;5076231;28;20028;-77
2023/01/20 06:13:38;;;;;;;25.23;13.87;;;-2.00;99.90;;;;;;5058020;28;20466;-77
2023/01/20 06:16:04;;;;;;;26.48;12.13;;;-2.10;99.90;;;;;;5057984;28;20771;-77
2023/01/20 06:18:30;;;;;;;17.85;10.95;;;-2.10;99.90;;;;;;5075356;28;20055;-78
2023/01/20 06:20:57;;;;;;;21.52;12.60;;;-1.80;99.90;;;;;;5075689;28;20021;-78
2023/01/20 06:23:23;;;;;;;25.27;12.90;;;-2.10;99.90;;;;;;5075920;28;20020;-78
2023/01/20 06:26:14;;;;;;;20.30;12.07;;;-2.00;99.90;;;;;;5076009;28;20426;-77
2023/01/20 06:28:40;;;;;;;22.20;12.55;;;-2.00;99.90;;;;;;5075802;28;20067;-78
2023/01/20 06:31:08;;;;;;;25.17;12.45;;;-2.00;99.90;;;;;;5075583;28;20028;-78
2023/01/20 06:33:34;;;;;;;22.70;12.23;;;-1.90;99.90;;;;;;5075563;28;20032;-78
2023/01/20 06:36:00;;;;;;;22.35;12.18;;;-2.00;99.90;;;;;;5075510;28;20484;-78
2023/01/20 06:38:30;;;;;;;22.20;12.00;;;-1.90;99.90;;;;;;5057617;28;20033;-78
2023/01/20 06:41:01;;;;;;;24.08;12.23;;;-1.90;99.90;;;;;;5058069;28;20129;-78
2023/01/20 06:43:34;;;;;;;25.27;13.40;;;-1.90;99.90;;;;;;5076348;28;20517;-77
2023/01/20 06:46:05;;;;;;;23.50;13.93;;;-1.80;99.90;;;;;;5058276;28;20481;-77
2023/01/20 06:48:31;;;;;;;26.92;13.45;;;-1.90;99.90;;;;;;5075833;28;20020;-77
2023/01/20 06:51:04;;;;;;;29.35;13.43;;;-1.70;99.90;;;;;;5075467;28;20088;-78
2023/01/20 06:53:30;;;;;;;32.55;16.55;;;-1.80;99.90;;;;;;5075471;28;20050;-77
2023/01/20 06:55:57;;;;;;;23.42;12.10;;;-1.70;99.90;;;;;;5075435;28;20024;-77
2023/01/20 06:58:24;;;;;;;24.92;13.75;;;-1.70;99.90;;;;;;5075461;28;20063;-77
2023/01/20 07:00:51;;;;;;;24.20;13.70;;;-1.70;99.90;;;;;;5075360;28;20031;-77
2023/01/20 07:03:16;;;;;;;30.25;14.60;;;-1.30;99.90;;;;;;5057357;28;20035;-77
2023/01/20 07:05:42;;;;;;;26.73;13.30;;;-1.40;99.90;;;;;;5075404;28;20062;-77
2023/01/20 07:08:08;;;;;;;21.83;12.90;;;-1.60;99.90;;;;;;5075491;28;20521;-77
2023/01/20 07:10:35;;;;;;;23.52;12.60;;;-1.50;99.90;;;;;;5075634;28;20028;-77
2023/01/20 07:13:00;;;;;;;20.55;12.23;;;-1.40;99.90;;;;;;5076450;28;20075;-77
2023/01/20 07:15:26;;;;;;;24.33;12.55;;;-1.40;99.90;;;;;;5059281;28;20029;-78
2023/01/20 07:17:51;;;;;;;24.30;12.77;;;-1.30;99.90;;;;;;5077784;28;20064;-78
2023/01/20 07:20:17;;;;;;;21.05;11.25;;;-1.30;99.90;;;;;;5078569;28;20035;-78
2023/01/20 07:22:43;;;;;;;22.25;12.05;;;-1.20;99.90;;;;;;5061633;28;20035;-78
2023/01/20 07:25:09;;;;;;;22.15;12.25;;;-1.20;99.90;;;;;;5060823;28;20036;-77
2023/01/20 07:27:34;;;;;;;22.42;12.07;;;-1.20;99.90;;;;;;5077321;28;20048;-78
2023/01/20 07:30:00;;;;;;;22.55;12.25;;;-1.10;99.90;;;;;;5077510;28;20417;-78
2023/01/20 07:32:29;;;;;;;22.45;11.40;;;-1.10;99.90;;;;;;5080484;28;20446;-78
2023/01/20 07:34:55;;;;;;;20.20;10.88;;;-1.10;99.90;;;;;;5063084;28;20123;-77
2023/01/20 07:37:21;;;;;;;20.00;11.73;;;-1.10;99.90;;;;;;5061501;28;20071;-77
2023/01/20 07:39:46;;;;;;;18.27;11.38;;;-1.10;99.90;;;;;;5077412;28;20482;-77
2023/01/20 07:42:12;;;;;;;19.33;11.38;;;-0.90;99.90;;;;;;5074607;28;20032;-77
2023/01/20 07:44:37;;;;;;;20.73;11.20;;;-1.00;99.90;;;;;;5073980;28;20025;-77
2023/01/20 07:47:03;;;;;;;19.85;11.05;;;-1.00;99.90;;;;;;5074472;28;20028;-77
2023/01/20 07:49:29;;;;;;;21.10;10.90;;;-1.00;99.90;;;;;;5074331;28;20082;-77
2023/01/20 07:51:54;;;;;;;19.65;10.05;;;-1.00;99.90;;;;;;5074053;28;20020;-77
2023/01/20 07:54:20;;;;;;;22.73;10.80;;;-0.90;99.90;;;;;;5056306;28;20025;-77
2023/01/20 07:56:46;;;;;;;23.25;10.52;;;-0.90;99.90;;;;;;5056035;28;20119;-77
2023/01/20 07:59:11;;;;;;;19.20;10.88;;;-0.80;99.90;;;;;;5056062;28;20527;-77
2023/01/20 08:01:37;;;;;;;22.45;10.32;;;-0.70;99.90;;;;;;5074046;28;20099;-76
2023/01/20 08:04:03;;;;;;;22.67;9.65;;;-0.70;99.90;;;;;;5074047;28;20026;-77
2023/01/20 08:06:29;;;;;;;20.27;9.95;;;-0.60;99.90;;;;;;5073952;28;20112;-77
2023/01/20 08:08:58;;;;;;;19.80;10.23;;;-0.60;99.90;;;;;;5073876;28;20049;-77
2023/01/20 08:11:24;;;;;;;21.27;10.70;;;-0.50;99.90;;;;;;5073847;28;20032;-77
2023/01/20 08:13:49;;;;;;;17.73;10.57;;;-0.40;99.90;;;;;;5055708;28;20074;-76
2023/01/20 08:16:17;;;;;;;16.48;9.98;;;-0.40;99.90;;;;;;5073758;28;20098;-76
2023/01/20 08:18:43;;;;;;;20.42;10.90;;;-0.30;99.90;;;;;;5055731;28;20040;-77
2023/01/20 08:21:20;;;;;;;17.17;9.20;;;-0.10;99.90;;;;;;5073642;28;20533;-77
2023/01/20 08:23:45;;;;;;;18.00;9.57;;;-0.10;99.90;;;;;;5056149;28;20052;-77
2023/01/20 08:26:11;;;;;;;18.67;9.15;;;0.00;99.90;;;;;;5055695;28;20489;-76
2023/01/20 08:28:37;;;;;;;15.90;9.55;;;0.10;99.90;;;;;;5055793;28;20047;-76
2023/01/20 08:31:08;;;;;;;15.70;9.07;;;0.30;99.90;;;;;;5055691;28;20417;-77
2023/01/20 08:33:33;;;;;;;20.42;10.23;;;0.40;99.90;;;;;;5073494;28;20028;-76
2023/01/20 08:36:32;;;;;;;13.45;8.98;;;0.50;99.90;;;;;;5055371;28;20029;-76
2023/01/20 08:39:01;;;;;;;16.20;9.45;;;0.60;99.90;;;;;;5047586;28;20045;-76
2023/01/20 08:41:30;;;;;;;13.80;8.43;;;0.70;99.90;;;;;;5076327;28;20470;-76
2023/01/20 08:43:57;;;;;;;15.70;7.90;;;0.70;99.90;;;;;;5059413;28;20036;-77
2023/01/20 08:46:23;;;;;;;15.32;8.65;;;0.80;99.90;;;;;;5059596;28;20043;-77
2023/01/20 08:48:50;;;;;;;13.25;8.15;;;0.90;99.90;;;;;;5077447;28;20378;-77
2023/01/20 08:51:22;;;;;;;13.82;8.18;;;0.90;99.90;;;;;;5059309;28;20563;-77
2023/01/20 08:53:48;;;;;;;14.35;7.65;;;1.10;99.90;;;;;;5059590;28;20025;-76
2023/01/20 08:56:15;;;;;;;19.15;8.43;;;1.00;99.90;;;;;;5077383;28;20520;-76
2023/01/20 08:58:40;;;;;;;14.23;7.80;;;1.10;99.90;;;;;;5059311;28;20052;-76
2023/01/20 09:01:18;;;;;;;12.85;7.80;;;1.20;99.90;;;;;;5059830;28;20466;-76
2023/01/20 09:03:45;;;;;;;12.43;7.30;;;1.20;99.90;;;;;;5059298;28;20032;-76
2023/01/20 09:06:11;;;;;;;12.52;7.40;;;1.10;99.90;;;;;;5077105;28;20032;-77
2023/01/20 09:08:37;;;;;;;16.70;9.05;;;1.10;99.90;;;;;;5077316;28;20112;-77
2023/01/20 09:11:12;;;;;;;13.55;7.88;;;1.10;99.90;;;;;;5077408;28;20032;-76
2023/01/20 09:13:38;;;;;;;23.58;8.20;;;1.10;99.90;;;;;;5077249;28;20090;-76
2023/01/20 09:16:04;;;;;;;15.35;7.03;;;1.10;99.90;;;;;;5076893;28;20413;-76
2023/01/20 09:18:34;;;;;;;14.52;7.75;;;1.10;99.90;;;;;;5076908;28;20490;-76
2023/01/20 09:21:01;;;;;;;18.23;8.00;;;1.20;99.90;;;;;;5058993;28;20029;-76
2023/01/20 09:23:27;;;;;;;18.23;7.60;;;1.10;99.90;;;;;;5076790;28;20055;-76
2023/01/20 09:25:53;;;;;;;17.38;7.25;;;1.20;99.90;;;;;;5076806;28;20029;-76
2023/01/20 09:28:19;;;;;;;11.95;7.28;;;1.30;99.90;;;;;;5077129;28;20059;-76
2023/01/20 09:30:45;;;;;;;14.95;8.32;;;1.30;99.90;;;;;;5076417;28;20036;-76
2023/01/20 09:33:12;;;;;;;16.52;6.78;;;1.50;99.90;;;;;;5059118;28;20028;-76
2023/01/20 09:35:38;;;;;;;15.48;7.80;;;1.60;99.90;;;;;;5076483;28;20028;-76
2023/01/20 09:44:44;;;;;;;11.23;7.15;;;1.70;99.90;;;;;;4975619;28;20033;-76
2023/01/20 09:47:21;;;;;;;12.10;7.32;;;1.90;99.90;;;;;;4975508;28;20118;-76
2023/01/20 09:53:16;;;;;;;13.40;7.40;;;2.00;99.90;;;;;;4974536;28;20046;-76
2023/01/20 09:56:04;;;;;;;11.30;6.72;;;2.00;99.90;;;;;;4959008;28;20043;-76
2023/01/20 09:58:36;;;;;;;20.42;7.18;;;2.20;99.90;;;;;;4969279;28;20504;-75
2023/01/20 10:01:23;;;;;;;16.30;6.75;;;2.20;99.90;;;;;;4975286;28;20046;-75
2023/01/20 10:03:55;;;;;;;12.60;7.35;;;2.20;99.90;;;;;;4974932;28;20428;-75
2023/01/20 10:06:41;;;;;;;11.25;6.45;;;2.20;99.90;;;;;;4975115;28;20038;-75
2023/01/20 10:09:10;;;;;;;15.98;7.88;;;2.10;99.90;;;;;;4975016;28;20067;-75
2023/01/20 10:11:39;;;;;;;16.60;7.82;;;2.10;99.90;;;;;;4958839;28;20027;-75
2023/01/20 10:14:34;;;;;;;11.18;6.95;;;2.20;99.90;;;;;;4981830;28;20036;-75
2023/01/20 10:17:11;;;;;;;13.32;7.68;;;2.30;99.90;;;;;;5075828;28;20078;-75
2023/01/20 10:20:08;;;;;;;12.80;6.90;;;2.10;99.90;;;;;;5075952;28;20029;-75
2023/01/20 10:22:57;;;;;;;13.60;7.85;;;2.10;99.90;;;;;;5076076;28;20074;-75
2023/01/20 10:25:32;;;;;;;;;;;2.30;99.90;;;;;;5076105;28;20024;-75
2023/01/20 10:28:06;;;;;;;10.55;7.35;;;2.30;99.90;;;;;;5075150;28;19945;-75
2023/01/20 10:30:36;;;;;;;13.63;7.85;;;2.50;99.90;;;;;;5075416;28;20493;-75
2023/01/20 10:33:09;;;;;;;12.70;7.47;;;2.40;99.90;;;;;;5075440;28;20024;-75
2023/01/20 10:35:40;;;;;;;15.77;7.70;;;2.30;99.90;;;;;;5075249;28;20078;-75
2023/01/20 10:38:18;;;;;;;14.70;7.63;;;2.30;99.90;;;;;;5057573;28;20482;-75
2023/01/20 10:41:26;;;;;;;14.10;6.70;;;2.30;99.90;;;;;;5075594;28;20046;-74
2023/01/20 10:43:52;;;;;;;12.60;7.03;;;2.40;99.90;;;;;;4974573;28;20497;-74
2023/01/20 10:46:55;;;;;;;10.90;6.30;;;2.40;99.90;;;;;;5050888;28;20119;-74
2023/01/20 10:49:51;;;;;;;11.48;6.97;;;2.50;99.90;;;;;;5075305;28;20136;-75
2023/01/20 10:52:41;;;;;;;11.68;6.85;;;2.60;99.90;;;;;;5057431;28;20143;-74
2023/01/20 10:55:37;;;;;;;10.75;6.43;;;2.40;99.90;;;;;;5057271;28;20025;-74
2023/01/20 10:58:14;;;;;;;12.70;6.40;;;2.30;99.90;;;;;;5074784;28;20110;-74
2023/01/20 11:00:41;;;;;;;12.00;6.90;;;2.20;99.90;;;;;;5074957;28;20467;-75
2023/01/20 11:03:13;;;;;;;13.55;7.28;;;2.10;99.90;;;;;;5074891;28;20366;-74
2023/01/20 11:05:41;;;;;;;10.98;7.03;;;2.00;99.90;;;;;;5074541;28;20021;-74
2023/01/20 11:08:24;;;;;;;11.50;7.25;;;2.10;99.90;;;;;;5057002;28;20119;-75
2023/01/20 11:10:55;;;;;;;12.90;7.63;;;2.20;99.90;;;;;;5075135;28;20028;-74
2023/01/20 11:13:21;;;;;;;13.98;7.30;;;2.30;99.90;;;;;;5056864;28;20460;-75
2023/01/20 11:15:50;;;;;;;13.73;7.90;;;2.40;99.90;;;;;;5056515;28;20031;-75
2023/01/20 11:18:16;;;;;;;13.65;8.05;;;2.50;99.90;;;;;;5056561;28;20113;-74
2023/01/20 11:21:10;;;;;;;15.98;7.90;;;2.40;99.90;;;;;;5074194;28;20502;-74
2023/01/20 11:23:45;;;;;;;16.88;8.30;;;2.40;99.90;;;;;;5071391;28;20118;-75
2023/01/20 11:26:23;;;;;;;13.35;8.50;;;2.40;99.90;;;;;;5056534;28;20032;-75
2023/01/20 11:28:50;;;;;;;13.77;8.10;;;2.30;99.90;;;;;;5075312;28;20080;-74
2023/01/20 11:31:17;;;;;;;18.73;7.88;;;2.10;99.90;;;;;;5058459;28;20024;-75
2023/01/20 11:33:58;;;;;;;15.65;8.20;;;2.10;99.90;;;;;;5076395;28;20473;-75
2023/01/20 11:36:26;;;;;;;17.83;9.05;;;2.10;99.90;;;;;;5056855;28;20033;-74
2023/01/20 11:38:53;;;;;;;12.85;7.72;;;2.10;99.90;;;;;;5056317;28;20039;-74
2023/01/20 11:41:25;;;;;;;12.35;8.27;;;2.10;99.90;;;;;;5074245;28;20032;-75
2023/01/20 11:43:54;;;;;;;15.07;8.77;;;2.10;99.90;;;;;;5074541;28;20102;-75
2023/01/20 11:46:26;;;;;;;14.50;8.48;;;2.00;99.90;;;;;;5074052;28;20031;-74
2023/01/20 11:49:23;;;;;;;17.52;9.13;;;1.90;99.90;;;;;;5056128;28;20052;-74
2023/01/20 11:51:54;;;;;;;13.50;8.68;;;1.90;99.90;;;;;;5074380;28;20032;-74
2023/01/20 11:54:28;;;;;;;14.48;8.43;;;2.00;99.90;;;;;;5056056;28;20173;-74
2023/01/20 11:57:09;;;;;;;13.18;8.25;;;2.20;99.90;;;;;;5073954;28;20534;-74
2023/01/20 11:59:45;;;;;;;19.02;8.75;;;2.20;99.90;;;;;;5056151;28;20476;-75
2023/01/20 12:02:10;;;;;;;13.45;7.72;;;2.20;99.90;;;;;;5073800;28;20534;-75
2023/01/20 12:04:48;;;;;;;17.80;8.23;;;2.40;99.90;;;;;;5056317;28;20029;-75
2023/01/20 12:07:31;;;;;;;11.55;7.80;;;2.50;99.90;;;;;;5056103;28;20036;-76
2023/01/20 12:10:24;;;;;;;11.77;7.28;;;2.70;99.90;;;;;;5073747;28;20021;-75
2023/01/20 12:13:05;;;;;;;12.00;7.72;;;2.70;99.90;;;;;;5063570;28;20048;-75
2023/01/20 12:15:40;;;;;;;15.27;8.35;;;2.60;99.90;;;;;;5055249;28;20033;-75
2023/01/20 12:18:39;;;;;;;17.67;7.15;;;2.70;99.90;;;;;;5055781;28;20385;-75
2023/01/20 12:21:18;;;;;;;12.90;6.82;;;2.70;99.90;;;;;;5052791;28;20063;-75
2023/01/20 12:23:58;;;;;;;;;;;2.60;99.90;;;;;;5073912;28;20033;-75
2023/01/20 12:26:26;;;;;;;10.60;6.50;;;2.50;99.90;;;;;;5055684;28;19908;-75
2023/01/20 12:29:04;;;;;;;11.13;6.93;;;2.50;99.90;;;;;;5055333;28;20044;-75
2023/01/20 12:31:30;;;;;;;10.30;6.25;;;2.60;99.90;;;;;;5055617;28;20036;-75
2023/01/20 12:34:09;;;;;;;10.00;6.35;;;2.60;99.90;;;;;;5073340;28;20025;-75
2023/01/20 12:37:05;;;;;;;11.55;6.25;;;2.50;99.90;;;;;;5055212;28;20024;-75
2023/01/20 12:39:34;;;;;;;16.83;6.43;;;2.50;99.90;;;;;;5073594;28;20063;-76
2023/01/20 12:42:08;;;;;;;9.32;6.20;;;2.40;99.90;;;;;;5073569;28;20051;-76
2023/01/20 12:45:06;;;;;;;12.23;6.38;;;2.40;99.90;;;;;;5073663;28;20032;-76
2023/01/20 12:48:08;;;;;;;12.03;6.60;;;2.30;99.90;;;;;;5055553;28;20529;-75
2023/01/20 12:50:34;;;;;;;12.82;6.00;;;2.30;99.90;;;;;;5073458;28;20270;-76
2023/01/20 12:53:21;;;;;;;9.90;5.47;;;2.30;99.90;;;;;;5073401;28;20029;-76
2023/01/20 12:55:51;;;;;;;10.63;5.97;;;2.30;99.90;;;;;;5055406;28;20032;-76
2023/01/20 12:58:35;;;;;;;14.00;6.78;;;2.30;99.90;;;;;;5055431;28;20428;-76
2023/01/20 13:01:42;;;;;;;11.48;5.72;;;2.40;99.90;;;;;;5073360;28;20032;-76
2023/01/20 13:04:45;;;;;;;15.43;8.45;;;2.50;99.90;;;;;;5055339;28;20123;-76